createdAt,value
2023-04-03T00:01:47.203Z,77.96
2023-04-03T00:04:13.649Z,77.27
2023-04-03T00:06:39.958Z,78.03
2023-04-03T00:09:07.293Z,77.62
2023-04-03T00:11:34.991Z,77.55
2023-04-03T00:14:01.380Z,77.25
2023-04-03T00:16:27.798Z,77.64
2023-04-03T00:18:54.148Z,77.89
2023-04-03T00:21:20.467Z,77.60
2023-04-03T00:23:46.800Z,78.05
2023-04-03T00:26:13.199Z,77.91
2023-04-03T00:28:39.513Z,77.13
2023-04-03T00:31:05.865Z,78.23
2023-04-03T00:33:32.200Z,78.29
2023-04-03T00:35:58.660Z,77.70
2023-04-03T00:38:25.025Z,77.72
2023-04-03T00:40:51.554Z,78.04
2023-04-03T00:43:20.763Z,77.23
2023-04-03T00:45:49.814Z,77.94
2023-04-03T00:48:23.442Z,77.97
2023-04-03T00:50:50.580Z,77.49
2023-04-03T00:53:23.076Z,77.00
2023-04-03T00:55:51.775Z,77.63
2023-04-03T00:58:21.593Z,77.74
2023-04-03T01:00:54.703Z,78.14
2023-04-03T01:03:21.045Z,78.07
2023-04-03T01:05:47.390Z,78.25
2023-04-03T01:08:13.701Z,78.32
2023-04-03T01:10:40.052Z,78.44
2023-04-03T01:13:23.588Z,78.94
2023-04-03T01:15:49.971Z,79.11
2023-04-03T01:18:16.300Z,79.29
2023-04-03T01:21:16.769Z,79.20
2023-04-03T01:23:49.429Z,78.48
2023-04-03T01:26:16.359Z,79.26
2023-04-03T01:28:42.671Z,79.40
2023-04-03T01:31:25.960Z,79.39
2023-04-03T01:33:52.879Z,79.01
2023-04-03T01:36:23.849Z,79.08
2023-04-03T01:38:50.160Z,79.43
2023-04-03T01:41:16.825Z,79.59
2023-04-03T01:43:43.414Z,79.59
2023-04-03T01:46:09.891Z,79.73
2023-04-03T01:48:36.650Z,80.30
2023-04-03T01:51:03.188Z,79.17
2023-04-03T01:53:30.344Z,79.38
2023-04-03T01:55:56.676Z,79.65
2023-04-03T01:58:22.991Z,79.45
2023-04-03T02:00:49.497Z,79.56
2023-04-03T02:03:15.861Z,79.46
2023-04-03T02:05:42.192Z,79.33
2023-04-03T02:08:08.520Z,79.49
2023-04-03T02:10:35.191Z,80.12
2023-04-03T02:13:01.725Z,79.75
2023-04-03T02:15:28.069Z,80.23
2023-04-03T02:17:54.417Z,79.75
2023-04-03T02:20:21.642Z,79.68
2023-04-03T02:22:48.142Z,80.22
2023-04-03T02:25:14.599Z,80.06
2023-04-03T02:27:41.124Z,79.70
2023-04-03T02:30:08.249Z,80.09
2023-04-03T02:32:34.554Z,79.87
2023-04-03T02:35:01.887Z,80.09
2023-04-03T02:37:28.219Z,80.46
2023-04-03T02:39:54.518Z,80.10
2023-04-03T02:42:20.821Z,79.69
2023-04-03T02:44:47.110Z,80.22
2023-04-03T02:47:13.419Z,79.95
2023-04-03T02:49:39.719Z,80.11
2023-04-03T02:52:06.023Z,79.86
2023-04-03T02:54:32.317Z,80.08
2023-04-03T02:56:58.951Z,80.26
2023-04-03T02:59:25.827Z,80.08
2023-04-03T03:01:52.196Z,80.87
2023-04-03T03:04:18.729Z,80.00
2023-04-03T03:06:45.140Z,80.84
2023-04-03T03:09:11.635Z,80.40
2023-04-03T03:11:37.959Z,81.15
2023-04-03T03:14:04.282Z,80.96
2023-04-03T03:16:30.888Z,81.05
2023-04-03T03:18:57.985Z,80.93
2023-04-03T03:21:25.352Z,80.61
2023-04-03T03:23:51.656Z,80.30
2023-04-03T03:26:17.970Z,80.57
2023-04-03T03:28:44.266Z,81.16
2023-04-03T03:31:10.814Z,81.32
2023-04-03T03:33:37.289Z,80.86
2023-04-03T03:36:04.004Z,81.12
2023-04-03T03:38:30.529Z,80.77
2023-04-03T03:40:56.846Z,81.44
2023-04-03T03:43:23.201Z,81.17
2023-04-03T03:45:53.814Z,81.21
2023-04-03T03:48:21.395Z,81.75
2023-04-03T03:50:48.744Z,81.36
2023-04-03T03:53:15.254Z,82.12
2023-04-03T03:55:42.065Z,82.26
2023-04-03T03:58:09.014Z,81.71
2023-04-03T04:00:35.392Z,81.85
2023-04-03T04:03:01.827Z,81.63
2023-04-03T04:05:28.307Z,82.32
2023-04-03T04:07:54.643Z,82.12
2023-04-03T04:10:20.985Z,81.63
2023-04-03T04:12:47.314Z,82.37
2023-04-03T04:15:13.708Z,82.20
2023-04-03T04:17:40.116Z,82.00
2023-04-03T04:20:06.976Z,82.44
2023-04-03T04:22:33.498Z,82.23
2023-04-03T04:24:59.839Z,82.46
2023-04-03T04:27:26.161Z,82.74
2023-04-03T04:29:52.458Z,82.50
2023-04-03T04:32:18.728Z,82.47
2023-04-03T04:34:45.034Z,82.51
2023-04-03T04:37:11.390Z,82.49
2023-04-03T04:39:37.670Z,82.30
2023-04-03T04:42:04.021Z,82.50
2023-04-03T04:44:30.323Z,82.30
2023-04-03T04:46:56.654Z,82.50
2023-04-03T04:49:22.966Z,82.75
2023-04-03T04:51:52.272Z,82.54
2023-04-03T04:54:21.572Z,82.96
2023-04-03T04:56:47.974Z,82.45
2023-04-03T04:59:14.297Z,82.84
2023-04-03T05:01:40.602Z,83.61
2023-04-03T05:04:06.933Z,83.32
2023-04-03T05:06:33.300Z,82.94
2023-04-03T05:09:00.236Z,83.22
2023-04-03T05:11:26.732Z,83.04
2023-04-03T05:13:53.183Z,82.37
2023-04-03T05:16:19.544Z,82.75
2023-04-03T05:18:45.914Z,82.47
2023-04-03T05:21:12.257Z,82.78
2023-04-03T05:23:38.602Z,82.59
2023-04-03T05:26:05.027Z,82.31
2023-04-03T05:28:31.341Z,82.24
2023-04-03T05:30:59.138Z,82.18
2023-04-03T05:33:26.446Z,82.31
2023-04-03T05:35:53.826Z,82.29
2023-04-03T05:38:20.294Z,81.31
2023-04-03T05:40:46.774Z,81.23
2023-04-03T05:43:13.182Z,81.21
2023-04-03T05:45:39.512Z,80.23
2023-04-03T05:48:05.944Z,80.98
2023-04-03T05:50:32.271Z,80.36
2023-04-03T05:52:59.792Z,80.23
2023-04-03T05:55:26.132Z,79.64
2023-04-03T05:57:52.426Z,78.65
2023-04-03T06:00:19.275Z,79.22
2023-04-03T06:02:45.691Z,78.59
2023-04-03T06:05:12.065Z,77.33
2023-04-03T06:07:38.434Z,77.45
2023-04-03T06:10:05.571Z,77.62
2023-04-03T06:12:31.912Z,76.72
2023-04-03T06:14:58.377Z,76.43
2023-04-03T06:17:24.790Z,76.73
2023-04-03T06:19:51.211Z,75.69
2023-04-03T06:22:17.586Z,75.38
2023-04-03T06:24:43.919Z,75.07
2023-04-03T06:27:12.132Z,74.60
2023-04-03T06:29:38.453Z,74.60
2023-04-03T06:32:05.001Z,73.86
2023-04-03T06:34:31.294Z,74.18
2023-04-03T06:36:57.622Z,73.04
2023-04-03T06:39:24.007Z,72.49
2023-04-03T06:41:51.253Z,72.06
2023-04-03T06:44:19.266Z,72.04
2023-04-03T06:46:45.905Z,72.36
2023-04-03T06:49:12.251Z,70.73
2023-04-03T06:51:38.607Z,71.57
2023-04-03T06:54:06.337Z,71.02
2023-04-03T06:56:33.372Z,71.02
2023-04-03T06:58:59.678Z,70.41
2023-04-03T07:01:27.783Z,70.29
2023-04-03T07:03:54.844Z,68.97
2023-04-03T07:06:21.984Z,68.96
2023-04-03T07:08:48.624Z,68.62
2023-04-03T07:11:14.993Z,69.90
2023-04-03T07:13:41.756Z,68.14
2023-04-03T07:16:09.640Z,68.89
2023-04-03T07:18:36.479Z,69.74
2023-04-03T07:21:03.816Z,69.28
2023-04-03T07:23:30.554Z,69.65
2023-04-03T07:25:56.989Z,69.60
2023-04-03T07:28:24.280Z,68.84
2023-04-03T07:30:59.909Z,69.08
2023-04-03T07:33:26.904Z,68.09
2023-04-03T07:35:53.700Z,67.92
2023-04-03T07:38:19.994Z,63.68
2023-04-03T07:40:48.645Z,64.39
2023-04-03T07:43:15.943Z,62.41
2023-04-03T07:45:42.979Z,62.35
2023-04-03T07:48:09.945Z,62.57
2023-04-03T07:50:36.235Z,62.52
2023-04-03T07:53:03.117Z,62.18
2023-04-03T07:55:29.537Z,61.21
2023-04-03T07:57:55.843Z,61.15
2023-04-03T08:00:22.213Z,61.69
2023-04-03T08:02:48.598Z,61.38
2023-04-03T08:05:14.971Z,60.70
2023-04-03T08:07:41.294Z,61.79
2023-04-03T08:10:07.915Z,61.96
2023-04-03T08:12:34.251Z,61.96
2023-04-03T08:15:01.201Z,61.56
2023-04-03T08:17:28.046Z,62.06
2023-04-03T08:19:54.356Z,61.53
2023-04-03T08:22:20.669Z,61.24
2023-04-03T08:24:58.557Z,62.80
2023-04-03T08:27:25.772Z,61.87
2023-04-03T08:29:52.068Z,58.85
2023-04-03T08:32:18.641Z,59.90
2023-04-03T08:34:44.994Z,58.96
2023-04-03T08:37:11.352Z,58.15
2023-04-03T08:39:37.725Z,57.87
2023-04-03T08:42:16.131Z,58.72
2023-04-03T08:45:27.430Z,59.08
2023-04-03T08:48:01.079Z,59.68
2023-04-03T08:50:35.932Z,57.81
2023-04-03T08:53:03.678Z,57.78
2023-04-03T08:55:32.708Z,57.57
2023-04-03T08:58:03.379Z,56.63
2023-04-03T09:00:38.497Z,56.72
2023-04-03T09:03:04.859Z,56.42
2023-04-03T09:05:41.272Z,56.21
2023-04-03T09:08:28.028Z,54.26
2023-04-03T09:11:06.685Z,50.53
2023-04-03T09:13:32.929Z,51.23
2023-04-03T09:16:03.187Z,49.86
2023-04-03T09:18:40.931Z,49.87
2023-04-03T09:21:25.585Z,49.59
2023-04-03T09:23:58.874Z,49.69
2023-04-03T09:26:51.337Z,49.99
2023-04-03T09:29:24.404Z,49.96
2023-04-03T09:31:56.970Z,51.59
2023-04-03T09:34:31.038Z,50.56
2023-04-03T09:37:00.355Z,50.92
2023-04-03T09:39:29.522Z,52.27
2023-04-03T09:42:44.051Z,51.35
2023-04-03T09:45:25.777Z,52.82
2023-04-03T09:48:08.337Z,51.96
2023-04-03T09:50:36.956Z,52.45
2023-04-03T09:53:08.467Z,52.69
2023-04-03T09:55:44.259Z,52.04
2023-04-03T09:58:36.102Z,53.18
2023-04-03T10:01:42.462Z,53.50
2023-04-03T10:04:18.204Z,53.83
2023-04-03T10:06:49.906Z,54.06
2023-04-03T10:09:31.016Z,54.46
2023-04-03T10:12:12.883Z,54.14
2023-04-03T10:14:41.268Z,54.10
2023-04-03T10:17:17.059Z,52.23
2023-04-03T10:19:55.003Z,52.39
2023-04-03T10:22:39.408Z,52.47
2023-04-03T10:25:22.798Z,52.99
2023-04-03T10:28:31.960Z,52.80
2023-04-03T10:31:09.645Z,53.29
2023-04-03T10:33:48.132Z,53.17
2023-04-03T10:36:51.671Z,52.25
2023-04-03T10:39:27.578Z,52.11
2023-04-03T10:42:19.952Z,51.32
2023-04-03T10:45:00.830Z,52.43
2023-04-03T10:48:08.830Z,51.40
2023-04-03T10:50:48.140Z,51.45
2023-04-03T10:53:42.138Z,51.71
2023-04-03T10:56:08.391Z,52.94
2023-04-03T10:58:42.682Z,53.98
2023-04-03T11:01:22.896Z,53.95
2023-04-03T11:03:57.790Z,53.79
2023-04-03T11:06:29.032Z,54.93
2023-04-03T11:09:02.080Z,53.96
2023-04-03T11:11:33.041Z,54.78
2023-04-03T11:14:10.566Z,55.05
2023-04-03T11:16:51.075Z,55.51
2023-04-03T11:19:24.097Z,56.00
2023-04-03T11:21:57.786Z,57.17
2023-04-03T11:24:26.634Z,54.89
2023-04-03T11:26:55.039Z,55.59
2023-04-03T11:29:35.117Z,53.28
2023-04-03T11:32:24.273Z,53.58
2023-04-03T11:34:55.216Z,54.35
2023-04-03T11:37:31.981Z,53.96
2023-04-03T11:40:02.590Z,52.22
2023-04-03T11:42:39.216Z,51.00
2023-04-03T11:45:23.800Z,49.83
2023-04-03T11:47:53.779Z,49.85
2023-04-03T11:50:44.229Z,49.30
2023-04-03T11:53:13.270Z,51.55
2023-04-03T11:55:50.264Z,52.24
2023-04-03T11:58:21.658Z,53.59
2023-04-03T12:01:01.732Z,53.87
2023-04-03T12:03:32.042Z,53.38
2023-04-03T12:06:18.379Z,54.04
2023-04-03T12:08:47.961Z,53.19
2023-04-03T12:11:14.469Z,51.57
2023-04-03T12:13:49.972Z,52.53
2023-04-03T12:16:21.766Z,51.29
2023-04-03T12:18:53.841Z,50.77
2023-04-03T12:21:23.082Z,50.46
2023-04-03T12:24:23.638Z,49.21
2023-04-03T12:27:03.342Z,49.54
2023-04-03T12:29:32.708Z,50.41
2023-04-03T12:32:17.696Z,50.39
2023-04-03T12:34:46.959Z,50.92
2023-04-03T12:37:31.519Z,48.54
2023-04-03T12:40:10.056Z,50.84
2023-04-03T12:42:42.435Z,52.16
2023-04-03T12:45:23.459Z,51.55
2023-04-03T12:47:52.438Z,50.61
2023-04-03T12:50:24.927Z,50.78
2023-04-03T12:52:58.370Z,51.50
2023-04-03T12:55:24.721Z,51.49
2023-04-03T12:57:51.060Z,51.40
2023-04-03T13:00:36.045Z,50.00
2023-04-03T13:03:04.390Z,51.21
2023-04-03T13:05:33.020Z,52.04
2023-04-03T13:08:03.924Z,50.54
2023-04-03T13:10:30.655Z,49.87
2023-04-03T13:12:59.435Z,50.98
2023-04-03T13:15:28.842Z,50.81
2023-04-03T13:17:55.280Z,50.97
2023-04-03T13:20:28.508Z,51.16
2023-04-03T13:23:04.513Z,51.66
2023-04-03T13:25:33.754Z,52.76
2023-04-03T13:28:13.344Z,53.69
2023-04-03T13:30:42.359Z,54.46
2023-04-03T13:33:27.714Z,52.38
2023-04-03T13:36:19.391Z,53.16
2023-04-03T13:38:45.864Z,53.97
2023-04-03T13:41:26.876Z,53.07
2023-04-03T13:43:57.559Z,52.70
2023-04-03T13:46:28.633Z,53.85
2023-04-03T13:48:57.208Z,53.07
2023-04-03T13:51:29.432Z,53.29
2023-04-03T13:54:00.570Z,53.15
2023-04-03T13:56:31.390Z,52.57
2023-04-03T13:59:12.765Z,53.99
2023-04-03T14:01:41.918Z,53.37
2023-04-03T14:04:22.322Z,53.23
2023-04-03T14:06:49.335Z,54.63
2023-04-03T14:09:18.020Z,53.29
2023-04-03T14:11:44.746Z,52.40
2023-04-03T14:14:18.151Z,51.66
2023-04-03T14:16:47.828Z,51.63
2023-04-03T14:19:26.646Z,51.03
2023-04-03T14:21:55.088Z,52.94
2023-04-03T14:24:21.546Z,53.01
2023-04-03T14:26:49.432Z,53.45
2023-04-03T14:29:15.946Z,54.42
2023-04-03T14:31:44.815Z,55.38
2023-04-03T14:34:12.638Z,54.98
2023-04-03T14:36:40.307Z,56.02
2023-04-03T14:39:08.094Z,55.92
2023-04-03T14:41:34.427Z,56.43
2023-04-03T14:44:00.757Z,57.15
2023-04-03T14:46:48.404Z,57.88
2023-04-03T14:49:22.077Z,57.86
2023-04-03T14:51:48.752Z,58.51
2023-04-03T14:54:18.150Z,58.67
2023-04-03T14:56:44.551Z,58.35
2023-04-03T14:59:13.928Z,57.91
2023-04-03T15:01:40.303Z,58.27
2023-04-03T15:04:13.955Z,56.51
2023-04-03T15:06:40.974Z,57.15
2023-04-03T15:09:25.115Z,56.93
2023-04-03T15:11:52.976Z,56.61
2023-04-03T15:14:29.932Z,56.79
2023-04-03T15:17:04.920Z,57.93
2023-04-03T15:19:39.529Z,57.72
2023-04-03T15:22:06.298Z,57.72
2023-04-03T15:24:32.640Z,58.01
2023-04-03T15:27:00.848Z,58.10
2023-04-03T15:29:28.004Z,58.88
2023-04-03T15:31:54.598Z,58.84
2023-04-03T15:34:21.105Z,57.95
2023-04-03T15:36:47.877Z,57.69
2023-04-03T15:39:14.168Z,58.09
2023-04-03T15:41:40.492Z,59.18
2023-04-03T15:44:06.815Z,59.39
2023-04-03T15:46:33.546Z,59.08
2023-04-03T15:48:59.944Z,59.07
2023-04-03T15:51:26.262Z,58.13
2023-04-03T15:53:52.538Z,58.43
2023-04-03T15:56:18.846Z,58.06
2023-04-03T15:58:45.145Z,57.27
2023-04-03T16:01:12.020Z,57.23
2023-04-03T16:03:40.573Z,57.33
2023-04-03T16:06:07.004Z,58.26
2023-04-03T16:08:33.326Z,56.95
2023-04-03T16:10:59.674Z,58.07
2023-04-03T16:13:26.015Z,57.08
2023-04-03T16:15:52.357Z,57.16
2023-04-03T16:18:18.729Z,57.30
2023-04-03T16:20:45.167Z,57.95
2023-04-03T16:23:12.590Z,58.54
2023-04-03T16:25:38.963Z,58.76
2023-04-03T16:28:05.676Z,59.47
2023-04-03T16:30:32.072Z,58.94
2023-04-03T16:32:58.517Z,57.90
2023-04-03T16:35:25.009Z,58.84
2023-04-03T16:37:51.284Z,58.68
2023-04-03T16:40:17.659Z,59.00
2023-04-03T16:42:43.935Z,58.92
2023-04-03T16:45:11.596Z,59.21
2023-04-03T16:47:38.254Z,59.81
2023-04-03T16:50:05.402Z,59.93
2023-04-03T16:52:31.808Z,59.33
2023-04-03T16:54:58.118Z,59.47
2023-04-03T16:57:24.448Z,59.96
2023-04-03T16:59:50.828Z,60.66
2023-04-03T17:02:17.145Z,60.51
2023-04-03T17:04:43.593Z,60.32
2023-04-03T17:07:09.920Z,60.61
2023-04-03T17:09:36.217Z,60.96
2023-04-03T17:12:02.608Z,60.59
2023-04-03T17:14:29.029Z,61.13
2023-04-03T17:16:55.420Z,61.04
2023-04-03T17:19:28.839Z,61.17
2023-04-03T17:21:55.366Z,61.59
2023-04-03T17:24:21.682Z,60.64
2023-04-03T17:26:48.028Z,61.19
2023-04-03T17:29:14.470Z,61.46
2023-04-03T17:31:40.871Z,61.84
2023-04-03T17:34:07.525Z,61.71
2023-04-03T17:36:34.371Z,61.39
2023-04-03T17:39:00.848Z,62.05
2023-04-03T17:41:27.194Z,62.30
2023-04-03T17:43:53.549Z,61.66
2023-04-03T17:46:19.981Z,62.09
2023-04-03T17:48:46.305Z,62.79
2023-04-03T17:51:15.774Z,63.48
2023-04-03T17:53:42.965Z,63.28
2023-04-03T17:56:12.892Z,64.13
2023-04-03T17:58:39.247Z,63.95
2023-04-03T18:01:12.803Z,64.26
2023-04-03T18:03:39.246Z,64.57
2023-04-03T18:06:10.017Z,64.70
2023-04-03T18:08:43.694Z,64.58
2023-04-03T18:11:10.590Z,65.05
2023-04-03T18:13:37.118Z,65.03
2023-04-03T18:16:07.070Z,64.74
2023-04-03T18:18:33.428Z,64.40
2023-04-03T18:20:59.869Z,64.79
2023-04-03T18:23:28.615Z,65.22
2023-04-03T18:25:55.315Z,65.30
2023-04-03T18:28:21.674Z,64.83
2023-04-03T18:30:48.706Z,65.14
2023-04-03T18:33:14.998Z,64.54
2023-04-03T18:35:41.625Z,65.05
2023-04-03T18:38:08.032Z,64.87
2023-04-03T18:40:34.792Z,65.74
2023-04-03T18:43:02.093Z,65.44
2023-04-03T18:45:28.980Z,66.15
2023-04-03T18:47:56.455Z,66.34
2023-04-03T18:50:22.822Z,66.35
2023-04-03T18:52:49.110Z,67.10
2023-04-03T18:55:15.566Z,67.12
2023-04-03T18:57:41.884Z,67.11
2023-04-03T19:00:08.628Z,68.05
2023-04-03T19:02:35.085Z,68.28
2023-04-03T19:05:01.553Z,68.27
2023-04-03T19:07:28.351Z,68.45
2023-04-03T19:09:55.254Z,68.37
2023-04-03T19:12:21.624Z,68.71
2023-04-03T19:14:47.948Z,69.28
2023-04-03T19:17:14.244Z,68.94
2023-04-03T19:19:40.593Z,68.84
2023-04-03T19:22:06.895Z,69.39
2023-04-03T19:24:33.657Z,69.60
2023-04-03T19:26:59.987Z,69.69
2023-04-03T19:29:26.277Z,69.66
2023-04-03T19:31:52.598Z,70.22
2023-04-03T19:34:18.964Z,70.63
2023-04-03T19:36:45.267Z,71.17
2023-04-03T19:39:13.974Z,71.44
2023-04-03T19:41:42.074Z,70.81
2023-04-03T19:44:08.625Z,71.14
2023-04-03T19:46:35.876Z,71.27
2023-04-03T19:49:02.622Z,71.65
2023-04-03T19:51:28.942Z,71.93
2023-04-03T19:53:55.222Z,71.84
2023-04-03T19:56:21.588Z,71.66
2023-04-03T19:58:47.985Z,71.80
2023-04-03T20:01:14.307Z,71.87
2023-04-03T20:03:40.600Z,71.63
2023-04-03T20:06:06.954Z,72.10
2023-04-03T20:08:33.309Z,71.91
2023-04-03T20:10:59.698Z,71.86
2023-04-03T20:13:26.089Z,72.40
2023-04-03T20:15:52.458Z,72.00
2023-04-03T20:18:20.475Z,72.89
2023-04-03T20:20:54.477Z,72.70
2023-04-03T20:23:21.074Z,72.84
2023-04-03T20:26:01.503Z,72.89
2023-04-03T20:28:35.212Z,73.33
2023-04-03T20:31:01.564Z,72.60
2023-04-03T20:33:28.360Z,73.36
2023-04-03T20:35:58.257Z,72.25
2023-04-03T20:38:25.003Z,72.91
2023-04-03T20:40:51.325Z,72.94
2023-04-03T20:43:17.644Z,72.73
2023-04-03T20:45:43.970Z,72.26
2023-04-03T20:48:10.797Z,72.68
2023-04-03T20:50:37.187Z,72.42
2023-04-03T20:53:03.506Z,72.44
2023-04-03T20:55:29.927Z,73.25
2023-04-03T20:57:56.303Z,72.64
2023-04-03T21:00:22.754Z,72.60
2023-04-03T21:02:49.071Z,72.10
2023-04-03T21:05:16.238Z,73.15
2023-04-03T21:08:19.905Z,72.73
2023-04-03T21:11:23.740Z,73.02
2023-04-03T21:14:27.557Z,73.44
2023-04-03T21:16:53.778Z,73.64
2023-04-03T21:19:20.551Z,73.44
2023-04-03T21:21:47.197Z,73.16
2023-04-03T21:24:16.615Z,73.92
2023-04-03T21:26:43.568Z,73.72
2023-04-03T21:29:10.663Z,75.03
2023-04-03T21:32:06.403Z,73.87
2023-04-03T21:34:32.736Z,73.94
2023-04-03T21:37:07.012Z,74.55
2023-04-03T21:39:33.396Z,74.30
2023-04-03T21:42:00.197Z,74.14
2023-04-03T21:44:26.723Z,74.96
2023-04-03T21:46:53.047Z,75.60
2023-04-03T21:49:20.242Z,75.08
2023-04-03T21:51:46.727Z,74.39
2023-04-03T21:54:13.063Z,75.43
2023-04-03T21:56:39.332Z,74.58
2023-04-03T21:59:05.751Z,75.40
2023-04-03T22:01:32.168Z,75.28
2023-04-03T22:03:59.377Z,75.65
2023-04-03T22:06:26.235Z,75.59
2023-04-03T22:08:52.821Z,76.04
2023-04-03T22:11:19.101Z,76.86
2023-04-03T22:13:45.405Z,76.92
2023-04-03T22:16:12.377Z,77.02
2023-04-03T22:18:39.160Z,77.52
2023-04-03T22:21:06.007Z,77.76
2023-04-03T22:23:32.310Z,77.68
2023-04-03T22:26:07.794Z,77.49
2023-04-03T22:28:37.013Z,77.09
2023-04-03T22:31:04.637Z,77.26
2023-04-03T22:33:30.953Z,77.86
2023-04-03T22:35:57.275Z,78.47
2023-04-03T22:38:23.596Z,77.47
2023-04-03T22:41:00.199Z,77.76
2023-04-03T22:43:27.942Z,77.96
2023-04-03T22:45:55.251Z,78.57
2023-04-03T22:48:22.188Z,78.00
2023-04-03T22:50:48.504Z,77.81
2023-04-03T22:53:15.782Z,78.21
2023-04-03T22:55:42.076Z,77.88
2023-04-03T22:58:08.651Z,78.01
2023-04-03T23:00:35.016Z,78.98
2023-04-03T23:03:01.756Z,78.23
2023-04-03T23:05:28.817Z,78.45
2023-04-03T23:07:55.132Z,78.31
2023-04-03T23:10:21.785Z,79.33
2023-04-03T23:12:48.163Z,79.14
2023-04-03T23:15:14.469Z,78.66
2023-04-03T23:17:40.819Z,78.85
2023-04-03T23:20:07.610Z,79.33
2023-04-03T23:22:33.891Z,79.34
2023-04-03T23:25:00.196Z,79.47
2023-04-03T23:27:26.492Z,79.44
2023-04-03T23:29:52.775Z,79.44
2023-04-03T23:32:19.106Z,79.31
2023-04-03T23:34:45.421Z,79.40
2023-04-03T23:37:12.322Z,79.40
2023-04-03T23:39:38.654Z,79.43
2023-04-03T23:42:05.017Z,79.00
2023-04-03T23:44:31.299Z,79.17
2023-04-03T23:46:57.586Z,79.27
2023-04-03T23:49:23.884Z,79.14
2023-04-03T23:51:50.248Z,79.68
2023-04-03T23:54:16.568Z,79.47
2023-04-03T23:56:42.838Z,79.31
2023-04-03T23:59:09.128Z,79.41
